Time;durP1;ratioP1;P1;durP2;ratioP2;P2;SDS_P1;SDS_P2;PMS_P1;PMS_P2;Temp;Humidity;BMP_temperature;BMP_pressure;BME280_temperature;BME280_humidity;BME280_pressure;Samples;Min_cycle;Max_cycle;Signal;HPM_P1;HPM_P2
2023/03/28 00:01:57;;;;;;;4.07;1.92;;;;;;;2.68;69.49;102456.13;3608218;39;20385;-68
2023/03/28 00:04:22;;;;;;;9.80;2.30;;;;;;;2.67;69.43;102458.81;3606464;39;20571;-68
2023/03/28 00:06:52;;;;;;;12.02;2.55;;;;;;;2.54;70.39;102442.03;3608587;39;20063;-68
2023/03/28 00:09:19;;;;;;;8.18;2.28;;;;;;;2.62;70.47;102461.47;3608797;39;20132;-68
2023/03/28 00:11:46;;;;;;;7.93;2.00;;;;;;;2.60;69.64;102465.91;3610944;39;20074;-68
2023/03/28 00:14:13;;;;;;;7.75;2.20;;;;;;;2.58;70.09;102456.19;3612635;39;20286;-68
2023/03/28 00:16:44;;;;;;;8.50;2.53;;;;;;;2.51;70.60;102444.69;3616145;39;20061;-67
2023/03/28 00:19:14;;;;;;;7.40;2.63;;;;;;;2.53;70.82;102454.41;3613875;39;20308;-68
2023/03/28 00:21:47;;;;;;;8.32;2.15;;;;;;;2.52;70.65;102447.34;3610618;39;20059;-68
2023/03/28 00:24:17;;;;;;;13.10;2.97;;;;;;;2.50;70.96;102459.72;3609096;39;20050;-68
2023/03/28 00:26:44;;;;;;;9.27;2.30;;;;;;;2.50;72.16;102449.09;3606880;39;20047;-68
2023/03/28 00:29:15;;;;;;;7.43;2.20;;;;;;;2.46;70.71;102446.47;3610713;39;20063;-68
2023/03/28 00:31:41;;;;;;;7.35;2.60;;;;;;;2.37;71.65;102434.09;3611585;39;20064;-68
2023/03/28 00:34:07;;;;;;;5.00;2.38;;;;;;;2.40;71.32;102447.34;3613783;39;20046;-68
2023/03/28 00:36:33;;;;;;;5.05;2.75;;;;;;;2.05;71.90;102386.41;3613875;39;20423;-68
2023/03/28 00:39:05;;;;;;;8.30;2.75;;;;;;;2.33;71.51;102442.94;3609403;39;20320;-68
2023/03/28 00:41:38;;;;;;;8.27;2.40;;;;;;;2.30;72.67;102445.59;3610393;39;20409;-67
2023/03/28 00:44:47;;;;;;;6.30;2.17;;;;;;;2.30;72.85;102450.91;3608956;39;20088;-68
2023/03/28 00:47:27;;;;;;;6.05;2.40;;;;;;;2.26;71.96;102443.84;3611072;39;20408;-67
2023/03/28 00:50:05;;;;;;;5.35;2.42;;;;;;;2.24;73.01;102437.66;3614793;39;20454;-67
2023/03/28 00:52:46;;;;;;;6.28;2.20;;;;;;;2.00;72.89;102399.69;3611309;39;20059;-67
2023/03/28 00:55:22;;;;;;;5.65;3.15;;;;;;;2.23;72.05;102451.81;3613225;39;20058;-67
2023/03/28 00:57:50;;;;;;;6.70;2.72;;;;;;;2.21;71.75;102450.94;3612674;39;20058;-67
2023/03/28 01:00:18;;;;;;;7.07;2.40;;;;;;;2.20;72.92;102451.81;3608810;39;20047;-67
2023/03/28 01:02:51;;;;;;;6.70;3.03;;;;;;;2.17;72.39;102451.81;3611492;39;20051;-67
2023/03/28 01:05:27;;;;;;;7.10;2.50;;;;;;;2.14;72.90;102451.81;3609736;39;20049;-68
2023/03/28 01:08:36;;;;;;;7.40;2.70;;;;;;;2.13;73.68;102453.59;3604205;39;20054;-67
2023/03/28 01:11:04;;;;;;;10.05;3.00;;;;;;;2.13;73.18;102455.38;3608774;39;20063;-67
2023/03/28 01:13:46;;;;;;;7.63;2.92;;;;;;;2.12;73.60;102446.50;3610143;39;20311;-68
2023/03/28 01:16:16;;;;;;;8.18;2.67;;;;;;;2.11;73.34;102447.41;3606478;39;20051;-68
2023/03/28 01:18:50;;;;;;;7.15;2.90;;;;;;;2.13;73.95;102443.00;3614470;39;20119;-68
2023/03/28 01:21:53;;;;;;;5.57;2.53;;;;;;;2.14;73.86;102443.88;3613871;39;20058;-68
2023/03/28 01:24:59;;;;;;;4.82;2.80;;;;;;;2.14;73.66;102443.88;3607958;39;20056;-68
2023/03/28 01:27:44;;;;;;;9.15;2.95;;;;;;;2.12;72.91;102445.63;3598957;39;20055;-68
2023/03/28 01:30:21;;;;;;;9.80;2.78;;;;;;;2.10;73.73;102437.69;3612950;39;20059;-68
2023/03/28 01:33:21;;;;;;;8.05;3.22;;;;;;;2.06;73.02;102435.91;3617219;39;20063;-68
2023/03/28 01:36:14;;;;;;;11.27;3.47;;;;;;;2.04;73.81;102437.69;3613015;39;20055;-68
2023/03/28 01:38:54;;;;;;;9.30;2.88;;;;;;;2.03;73.13;102436.81;3615455;39;20056;-68
2023/03/28 01:41:53;;;;;;;8.93;3.17;;;;;;;1.97;73.01;102423.53;3607812;39;20063;-68
2023/03/28 01:44:27;;;;;;;7.43;2.72;;;;;;;1.97;73.02;102434.16;3600842;39;20302;-68
2023/03/28 01:47:19;;;;;;;11.32;2.63;;;;;;;1.93;73.02;102420.88;3609052;39;20384;-68
2023/03/28 01:50:02;;;;;;;11.95;3.40;;;;;;;1.90;74.16;102421.75;3610193;39;20054;-67
2023/03/28 01:52:45;;;;;;;10.63;3.25;;;;;;;1.85;74.00;102426.19;3612165;39;20288;-68
2023/03/28 01:55:39;;;;;;;7.95;3.67;;;;;;;1.72;74.46;102404.09;3612439;39;20055;-68
2023/03/28 01:58:35;;;;;;;7.03;2.75;;;;;;;1.82;74.02;102426.19;3612669;39;20059;-68
2023/03/28 02:01:14;;;;;;;8.32;3.20;;;;;;;1.70;74.51;102410.28;3606049;39;20120;-68
2023/03/28 02:03:51;;;;;;;10.05;3.08;;;;;;;1.78;73.21;102424.44;3606096;39;20125;-69
2023/03/28 02:06:21;;;;;;;6.78;3.10;;;;;;;1.77;74.84;102428.81;3606589;39;20308;-69
2023/03/28 02:08:51;;;;;;;7.68;3.63;;;;;;;1.72;74.06;102416.47;3603585;39;20059;-69
2023/03/28 02:11:17;;;;;;;5.25;2.88;;;;;;;1.78;74.62;102425.31;3611134;39;20469;-68
2023/03/28 02:14:00;;;;;;;5.57;2.92;;;;;;;1.74;74.95;102412.03;3613867;39;20046;-69
2023/03/28 02:16:31;;;;;;;8.88;3.10;;;;;;;1.80;73.53;102427.94;3610461;39;20057;-68
2023/03/28 02:19:00;;;;;;;4.72;2.80;;;;;;;1.78;74.76;102424.44;3612148;39;20405;-68
2023/03/28 02:21:40;;;;;;;6.53;3.00;;;;;;;1.81;73.46;102421.78;3608932;39;20065;-68
2023/03/28 02:24:06;;;;;;;12.02;3.53;;;;;;;1.69;73.77;102404.09;3610894;39;20054;-69
2023/03/28 02:26:32;;;;;;;7.63;3.30;;;;;;;1.82;74.37;102424.44;3612104;39;20541;-68
2023/03/28 02:28:59;;;;;;;8.80;3.50;;;;;;;1.78;73.42;102411.19;3616336;39;20050;-69
2023/03/28 02:31:25;;;;;;;8.02;2.90;;;;;;;1.78;73.41;102416.47;3608309;39;20151;-69
2023/03/28 02:33:52;;;;;;;7.38;4.15;;;;;;;1.80;74.41;102417.34;3607315;39;20386;-68
2023/03/28 02:36:25;;;;;;;6.72;3.58;;;;;;;1.80;74.72;102417.34;3606752;39;20059;-68
2023/03/28 02:39:22;;;;;;;6.88;3.50;;;;;;;1.79;74.58;102419.13;3610141;39;20063;-68
2023/03/28 02:42:13;;;;;;;10.02;3.53;;;;;;;1.77;73.59;102418.22;3613440;39;20505;-69
2023/03/28 02:45:31;;;;;;;13.27;3.75;;;;;;;1.75;74.65;102419.13;3612462;39;20059;-68
2023/03/28 02:48:16;;;;;;;6.70;3.25;;;;;;;1.74;74.65;102414.69;3603783;39;20055;-72
2023/03/28 02:50:56;;;;;;;10.60;3.75;;;;;;;1.73;74.43;102410.28;3608504;39;20047;-68
2023/03/28 02:53:31;;;;;;;10.50;3.83;;;;;;;1.72;74.46;102420.00;3607692;39;20035;-69
2023/03/28 02:56:22;;;;;;;10.32;3.75;;;;;;;1.69;74.52;102412.06;3606177;39;20074;-69
2023/03/28 02:59:11;;;;;;;8.27;3.38;;;;;;;1.52;75.00;102388.19;3607708;39;20121;-69
2023/03/28 03:01:39;;;;;;;9.52;3.92;;;;;;;1.65;73.92;102412.03;3611131;39;20100;-69
2023/03/28 03:04:05;;;;;;;6.38;3.78;;;;;;;1.44;74.27;102379.34;3608110;39;20116;-68
2023/03/28 03:06:34;;;;;;;8.07;4.00;;;;;;;1.59;74.51;102405.88;3597489;39;20055;-69
2023/03/28 03:09:00;;;;;;;7.97;3.75;;;;;;;1.63;75.59;102404.97;3606851;39;20051;-69
2023/03/28 03:11:27;;;;;;;10.18;4.05;;;;;;;1.63;75.12;102410.28;3609299;39;20250;-69
2023/03/28 03:13:53;;;;;;;11.48;4.22;;;;;;;1.39;74.36;102370.50;3609157;39;20051;-69
2023/03/28 03:16:19;;;;;;;10.10;3.85;;;;;;;1.56;74.34;102402.34;3605186;39;20058;-69
2023/03/28 03:18:45;;;;;;;8.23;3.65;;;;;;;1.58;74.85;102409.38;3608882;39;20050;-69
2023/03/28 03:21:11;;;;;;;9.27;4.38;;;;;;;1.14;74.51;102338.72;3608213;39;20511;-69
2023/03/28 03:23:37;;;;;;;10.13;4.05;;;;;;;1.55;75.43;102406.72;3608347;39;20070;-69
2023/03/28 03:26:02;;;;;;;13.00;4.35;;;;;;;1.47;74.39;102408.50;3609242;39;20074;-69
2023/03/28 03:28:28;;;;;;;12.63;4.00;;;;;;;1.51;75.62;102415.56;3589912;39;20128;-69
2023/03/28 03:30:54;;;;;;;9.82;3.95;;;;;;;1.50;75.46;102424.41;3609710;39;20058;-69
2023/03/28 03:33:19;;;;;;;7.63;4.15;;;;;;;1.50;74.80;102413.81;3610355;39;20067;-69
2023/03/28 03:35:45;;;;;;;8.48;4.18;;;;;;;1.51;75.78;102415.56;3610062;39;20054;-69
2023/03/28 03:38:12;;;;;;;8.57;4.07;;;;;;;1.52;74.57;102417.34;3609727;39;20061;-69
2023/03/28 03:40:38;;;;;;;7.10;4.25;;;;;;;1.51;74.47;102426.16;3596568;39;20062;-69
2023/03/28 03:43:03;;;;;;;9.88;4.35;;;;;;;1.49;74.61;102417.34;3604213;39;20067;-68
2023/03/28 03:45:29;;;;;;;13.48;4.43;;;;;;;1.49;74.33;102416.44;3608552;39;20054;-68
2023/03/28 03:47:55;;;;;;;13.43;4.40;;;;;;;1.47;75.77;102411.16;3608434;39;20058;-68
2023/03/28 03:50:20;;;;;;;12.43;4.40;;;;;;;1.48;75.82;102420.84;3609269;39;20066;-69
2023/03/28 03:52:46;;;;;;;10.00;4.82;;;;;;;1.46;75.60;102417.34;3610001;39;20061;-68
2023/03/28 03:55:13;;;;;;;11.43;4.38;;;;;;;1.45;75.38;102410.25;3612563;39;20058;-68
2023/03/28 03:57:38;;;;;;;10.57;4.65;;;;;;;1.41;74.81;102411.13;3615295;39;20369;-68
2023/03/28 04:00:11;;;;;;;10.50;4.47;;;;;;;1.43;74.59;102412.03;3610821;39;20077;-68
2023/03/28 04:02:38;;;;;;;8.45;4.68;;;;;;;1.27;75.53;102389.03;3607140;39;20055;-68
2023/03/28 04:05:07;;;;;;;10.73;4.90;;;;;;;1.38;75.98;102421.72;3609766;39;20112;-68
2023/03/28 04:07:32;;;;;;;14.77;7.40;;;;;;;1.18;75.66;102378.44;3606540;39;20047;-68
2023/03/28 04:09:58;;;;;;;15.23;6.47;;;;;;;1.34;76.07;102414.66;3610094;39;20062;-68
2023/03/28 04:12:24;;;;;;;12.40;5.70;;;;;;;1.33;75.91;102412.88;3610873;39;20051;-68
2023/03/28 04:14:49;;;;;;;12.35;5.43;;;;;;;1.30;75.08;102413.78;3607262;39;20069;-68
2023/03/28 04:17:17;;;;;;;13.82;5.32;;;;;;;1.30;75.95;102412.88;3607175;39;20054;-68
2023/03/28 04:19:44;;;;;;;10.23;5.60;;;;;;;1.14;75.49;102383.72;3614765;39;20058;-68
2023/03/28 04:22:11;;;;;;;9.55;4.80;;;;;;;1.28;76.51;102412.00;3612668;39;20055;-68
2023/03/28 04:24:40;;;;;;;11.65;5.05;;;;;;;1.25;76.68;102396.09;3605754;39;20089;-68
2023/03/28 04:27:08;;;;;;;8.77;5.60;;;;;;;1.23;76.37;102403.16;3604291;39;20115;-69
2023/03/28 04:29:35;;;;;;;10.73;5.88;;;;;;;1.25;75.69;102406.69;3605415;39;20330;-68
2023/03/28 04:32:04;;;;;;;12.55;5.40;;;;;;;1.22;75.50;102404.91;3612603;39;20138;-69
2023/03/28 04:34:32;;;;;;;8.77;5.35;;;;;;;0.82;76.03;102335.09;3612331;39;20055;-69
2023/03/28 04:37:01;;;;;;;10.23;5.18;;;;;;;0.62;76.88;102304.16;3613242;39;20050;-68
2023/03/28 04:39:34;;;;;;;12.82;6.20;;;;;;;1.09;76.29;102377.53;3609056;39;20047;-68
2023/03/28 04:42:03;;;;;;;12.07;5.95;;;;;;;1.24;76.26;102410.22;3610867;39;20366;-68
2023/03/28 04:44:29;;;;;;;14.00;6.80;;;;;;;1.21;76.64;102402.28;3606098;39;20062;-68
2023/03/28 04:46:57;;;;;;;10.80;5.95;;;;;;;1.14;76.31;102393.41;3606741;39;20312;-68
2023/03/28 04:49:23;;;;;;;12.57;6.10;;;;;;;1.22;76.11;102402.28;3604731;39;20132;-68
2023/03/28 04:51:49;;;;;;;11.23;6.38;;;;;;;1.15;76.83;102396.09;3607835;39;20054;-69
2023/03/28 04:54:16;;;;;;;15.30;7.05;;;;;;;1.18;76.47;102399.63;3610700;39;20050;-69
2023/03/28 04:56:44;;;;;;;11.15;6.88;;;;;;;1.15;76.54;102393.44;3608859;39;20062;-69
2023/03/28 04:59:11;;;;;;;11.57;6.65;;;;;;;1.21;75.80;102402.28;3601272;39;20310;-69
2023/03/28 05:01:37;;;;;;;13.07;7.88;;;;;;;1.14;76.64;102410.22;3608609;39;20047;-69
2023/03/28 05:04:02;;;;;;;12.55;7.82;;;;;;;1.19;77.20;102411.97;3609377;39;20058;-68
2023/03/28 05:06:28;;;;;;;13.95;7.78;;;;;;;1.16;76.74;102405.78;3606193;39;20305;-68
2023/03/28 05:08:54;;;;;;;13.45;8.00;;;;;;;1.20;76.69;102411.97;3608202;39;20608;-68
2023/03/28 05:11:20;;;;;;;11.00;7.60;;;;;;;1.20;76.75;102424.34;3610169;39;20379;-68
2023/03/28 05:13:45;;;;;;;11.07;8.35;;;;;;;1.21;76.19;102418.19;3609422;39;20059;-68
2023/03/28 05:16:11;;;;;;;12.75;7.82;;;;;;;1.22;77.29;102419.94;3608852;39;20058;-69
2023/03/28 05:18:37;;;;;;;12.57;7.57;;;;;;;1.07;76.83;102402.22;3612067;39;20057;-69
2023/03/28 05:21:03;;;;;;;21.52;8.50;;;;;;;1.15;77.13;102416.38;3610084;39;20047;-69
2023/03/28 05:23:28;;;;;;;15.52;8.60;;;;;;;1.19;76.54;102417.28;3612944;39;20066;-68
2023/03/28 05:25:54;;;;;;;13.18;8.07;;;;;;;1.19;77.27;102423.47;3610584;39;20054;-67
2023/03/28 05:28:21;;;;;;;12.07;8.70;;;;;;;1.17;76.30;102414.59;3612717;39;20082;-67
2023/03/28 05:30:47;;;;;;;16.27;9.05;;;;;;;1.12;77.14;102411.09;3610287;39;20059;-68
2023/03/28 05:33:13;;;;;;;14.80;8.18;;;;;;;1.22;76.58;102425.22;3613559;39;20051;-69
2023/03/28 05:35:39;;;;;;;14.55;8.82;;;;;;;1.21;76.50;102427.00;3610511;39;20159;-69
2023/03/28 05:38:05;;;;;;;15.52;9.07;;;;;;;1.21;76.63;102421.72;3603697;39;20059;-68
2023/03/28 05:40:30;;;;;;;16.38;8.90;;;;;;;1.23;76.72;102430.53;3609322;39;20078;-69
2023/03/28 05:42:56;;;;;;;20.63;9.35;;;;;;;1.12;77.05;102411.97;3603926;39;20465;-69
2023/03/28 05:45:23;;;;;;;16.10;10.02;;;;;;;0.91;76.18;102382.75;3615037;39;20065;-70
2023/03/28 05:47:54;;;;;;;14.50;8.30;;;;;;;0.97;76.39;102390.72;3611854;39;20751;-70
2023/03/28 05:50:20;;;;;;;16.70;8.88;;;;;;;1.19;76.37;102422.56;3613311;39;20054;-70
2023/03/28 05:52:46;;;;;;;14.55;8.90;;;;;;;1.19;76.21;102423.47;3605613;39;20489;-68
2023/03/28 05:55:12;;;;;;;12.43;8.00;;;;;;;1.23;76.51;102413.75;3611542;39;20050;-69
2023/03/28 05:57:38;;;;;;;15.60;8.15;;;;;;;1.32;76.94;102440.25;3611018;39;20050;-68
2023/03/28 06:00:09;;;;;;;14.70;8.95;;;;;;;1.13;76.94;102395.19;3614063;39;20051;-68
2023/03/28 06:02:35;;;;;;;19.38;9.32;;;;;;;1.39;77.16;102426.13;3612346;39;20081;-67
2023/03/28 06:05:00;;;;;;;14.75;9.80;;;;;;;1.43;76.11;102422.63;3615469;39;20386;-69
2023/03/28 06:07:27;;;;;;;16.10;9.38;;;;;;;1.50;77.63;102418.22;3613299;39;20080;-70
2023/03/28 06:09:52;;;;;;;13.32;8.25;;;;;;;1.57;76.89;102412.91;3612451;39;20506;-70
2023/03/28 06:12:18;;;;;;;17.10;8.73;;;;;;;1.68;77.33;102414.69;3616674;39;20376;-69
2023/03/28 06:14:44;;;;;;;24.38;9.98;;;;;;;1.81;76.14;102414.72;3609211;39;20535;-68
2023/03/28 06:17:09;;;;;;;17.80;9.48;;;;;;;1.96;75.61;102419.09;3610259;39;20055;-69
2023/03/28 06:19:35;;;;;;;15.68;8.65;;;;;;;2.13;75.99;102412.94;3611838;39;20050;-69
2023/03/28 06:22:01;;;;;;;19.65;9.93;;;;;;;2.32;75.67;102414.66;3612118;39;20092;-70
2023/03/28 06:24:27;;;;;;;13.05;8.48;;;;;;;2.46;74.68;102415.50;3615123;39;20046;-69
2023/03/28 06:26:53;;;;;;;15.32;9.00;;;;;;;2.65;73.86;102426.94;3612705;39;20086;-70
2023/03/28 06:29:19;;;;;;;15.05;9.50;;;;;;;2.77;73.32;102428.69;3611439;39;20062;-69
2023/03/28 06:31:45;;;;;;;18.40;11.13;;;;;;;2.48;72.74;102365.97;3613025;39;20062;-68
2023/03/28 06:34:10;;;;;;;16.80;10.43;;;;;;;2.93;72.46;102433.03;3610648;39;20078;-69
2023/03/28 06:36:36;;;;;;;17.33;9.18;;;;;;;2.96;72.74;102433.03;3607826;39;20066;-69
2023/03/28 06:39:02;;;;;;;12.10;8.07;;;;;;;2.47;72.30;102342.06;3611384;39;20047;-70
2023/03/28 06:41:28;;;;;;;18.55;8.65;;;;;;;3.04;71.32;102435.63;3611756;39;20059;-70
2023/03/28 06:43:53;;;;;;;17.98;9.45;;;;;;;3.01;72.65;102425.94;3608556;39;20051;-70
2023/03/28 06:46:19;;;;;;;18.65;10.00;;;;;;;2.93;71.90;102406.47;3613514;39;20054;-69
2023/03/28 06:48:45;;;;;;;20.48;11.00;;;;;;;3.14;71.32;102441.78;3611774;39;20448;-69
2023/03/28 06:51:11;;;;;;;25.88;11.32;;;;;;;3.19;71.07;102440.88;3611374;39;20059;-69
2023/03/28 06:53:37;;;;;;;13.70;8.93;;;;;;;3.25;71.43;102430.22;3604023;39;20054;-69
2023/03/28 06:56:05;;;;;;;17.50;8.48;;;;;;;3.31;70.64;102429.31;3613078;39;20042;-69
2023/03/28 06:58:31;;;;;;;16.55;7.97;;;;;;;3.38;70.33;102430.16;3612349;39;20067;-69
2023/03/28 07:00:59;;;;;;;17.10;8.65;;;;;;;3.45;70.54;102432.75;3606520;39;20429;-69
2023/03/28 07:03:25;;;;;;;17.73;8.48;;;;;;;3.20;70.03;102377.97;3612366;39;20055;-69
2023/03/28 07:05:51;;;;;;;14.75;8.13;;;;;;;3.67;70.42;102443.25;3611024;39;20306;-68
2023/03/28 07:08:16;;;;;;;16.50;8.18;;;;;;;3.78;70.25;102445.84;3612699;39;20055;-67
2023/03/28 07:10:42;;;;;;;15.90;8.32;;;;;;;3.89;69.98;102450.16;3608918;39;20054;-67
2023/03/28 07:13:10;;;;;;;13.40;7.45;;;;;;;3.94;69.21;102440.38;3608268;39;20330;-68
2023/03/28 07:15:36;;;;;;;15.52;7.72;;;;;;;4.07;69.65;102440.28;3609330;39;20127;-69
2023/03/28 07:18:02;;;;;;;14.13;7.75;;;;;;;4.09;69.57;102434.03;3608422;39;20059;-68
2023/03/28 07:20:27;;;;;;;24.83;14.48;;;;;;;4.32;68.98;102438.25;3609323;39;20394;-68
2023/03/28 07:22:53;;;;;;;16.05;9.13;;;;;;;4.52;69.34;102451.38;3609299;39;20051;-68
2023/03/28 07:25:19;;;;;;;11.98;7.53;;;;;;;4.72;69.29;102449.34;3606926;39;20059;-68
2023/03/28 07:27:44;;;;;;;16.10;7.38;;;;;;;4.87;67.49;102440.31;3611189;39;20187;-68
2023/03/28 07:30:11;;;;;;;17.02;7.25;;;;;;;5.13;67.44;102446.19;3609573;39;20059;-66
2023/03/28 07:32:37;;;;;;;10.90;6.55;;;;;;;5.38;66.84;102458.31;3612552;39;20050;-67
2023/03/28 07:35:07;;;;;;;10.98;5.93;;;;;;;5.68;64.79;102457.88;3607318;39;20070;-69
2023/03/28 07:37:33;;;;;;;16.13;6.45;;;;;;;6.08;64.92;102457.25;3611325;39;20348;-68
2023/03/28 07:39:59;;;;;;;11.23;6.30;;;;;;;6.44;63.24;102457.53;3611389;39;20388;-68
2023/03/28 07:42:26;;;;;;;26.02;16.95;;;;;;;6.66;62.02;102449.94;3609818;39;20046;-69
2023/03/28 07:44:53;;;;;;;82.38;45.75;;;;;;;6.95;61.77;102460.09;3612735;39;20438;-69
2023/03/28 07:47:20;;;;;;;15.48;9.10;;;;;;;6.92;59.98;102430.75;3608579;39;20047;-69
2023/03/28 07:49:46;;;;;;;10.75;5.10;;;;;;;7.07;57.97;102465.19;3607750;39;20067;-69
2023/03/28 07:52:13;;;;;;;11.02;5.28;;;;;;;7.00;57.73;102452.84;3609760;39;20122;-69
2023/03/28 07:54:39;;;;;;;10.45;5.47;;;;;;;7.12;58.51;102457.94;3604940;39;20066;-70
2023/03/28 07:57:05;;;;;;;12.43;5.18;;;;;;;7.24;58.17;102456.78;3608336;39;20039;-69
2023/03/28 07:59:30;;;;;;;10.50;5.40;;;;;;;7.42;58.18;102448.38;3606571;39;20054;-70
2023/03/28 08:01:56;;;;;;;10.90;5.28;;;;;;;7.57;58.22;102454.28;3611029;39;20374;-70
2023/03/28 08:04:22;;;;;;;15.15;5.55;;;;;;;7.65;57.70;102458.53;3609286;39;20053;-70
2023/03/28 08:06:47;;;;;;;14.10;5.85;;;;;;;7.75;57.60;102458.31;3611723;39;20067;-70
2023/03/28 08:09:15;;;;;;;10.63;4.80;;;;;;;7.83;57.58;102457.22;3601964;39;20436;-70
2023/03/28 08:11:43;;;;;;;10.98;5.30;;;;;;;7.64;58.09;102407.69;3608552;39;20047;-70
2023/03/28 08:14:14;;;;;;;9.40;4.78;;;;;;;7.94;55.38;102456.94;3613500;39;20059;-70
2023/03/28 08:16:40;;;;;;;10.38;4.82;;;;;;;7.90;55.86;102457.97;3606375;39;20066;-69
2023/03/28 08:19:06;;;;;;;10.38;4.13;;;;;;;7.77;55.52;102467.16;3612147;39;20051;-69
2023/03/28 08:21:34;;;;;;;8.80;4.43;;;;;;;7.71;55.68;102467.31;3613825;39;20043;-69
2023/03/28 08:24:01;;;;;;;7.55;3.95;;;;;;;7.70;56.15;102470.91;3607396;39;20055;-70
2023/03/28 08:26:27;;;;;;;7.57;3.67;;;;;;;7.56;54.91;102426.63;3611854;39;20046;-69
2023/03/28 08:28:57;;;;;;;10.10;3.92;;;;;;;7.88;55.95;102457.09;3608879;39;20059;-70
2023/03/28 08:31:26;;;;;;;7.95;3.95;;;;;;;8.06;56.11;102461.13;3607953;39;20063;-69
2023/03/28 08:33:53;;;;;;;9.95;4.18;;;;;;;8.25;55.11;102450.84;3611808;39;20059;-69
2023/03/28 08:36:23;;;;;;;11.52;3.83;;;;;;;8.40;56.73;102446.88;3615282;39;20106;-69
2023/03/28 08:38:50;;;;;;;11.70;4.20;;;;;;;8.40;53.67;102445.06;3613441;39;20328;-69
2023/03/28 08:41:55;;;;;;;11.90;4.32;;;;;;;8.42;54.03;102445.91;3611340;39;20102;-70
2023/03/28 08:44:55;;;;;;;13.40;4.20;;;;;;;8.49;52.56;102441.28;3604006;39;20143;-68
2023/03/28 08:47:34;;;;;;;11.05;3.55;;;;;;;8.49;53.54;102452.88;3610919;39;20486;-69
2023/03/28 08:50:17;;;;;;;8.02;3.28;;;;;;;8.44;52.57;102448.56;3609244;39;20048;-69
2023/03/28 08:52:46;;;;;;;10.60;3.00;;;;;;;8.48;53.69;102442.22;3610840;39;20067;-69
2023/03/28 08:55:36;;;;;;;12.80;3.20;;;;;;;8.57;53.74;102448.19;3611407;39;20070;-69
2023/03/28 08:58:03;;;;;;;8.60;2.92;;;;;;;8.60;52.09;102445.44;3611288;39;20109;-69
2023/03/28 09:00:38;;;;;;;7.65;2.80;;;;;;;8.55;52.30;102420.53;3611290;39;20051;-69
2023/03/28 09:03:20;;;;;;;8.70;2.88;;;;;;;8.47;51.46;102425.25;3608972;39;20095;-69
2023/03/28 09:05:55;;;;;;;13.57;3.50;;;;;;;8.54;52.00;102434.00;3608413;39;20059;-67
2023/03/28 09:09:09;;;;;;;11.73;3.42;;;;;;;8.55;50.99;102433.94;3607762;39;20047;-67
2023/03/28 09:11:58;;;;;;;6.40;2.70;;;;;;;8.51;51.35;102428.72;3583148;39;20058;-67
2023/03/28 09:15:16;;;;;;;16.30;3.60;;;;;;;8.43;52.26;102442.31;3611644;39;20065;-67
2023/03/28 09:18:00;;;;;;;7.95;2.70;;;;;;;8.51;51.30;102434.09;3608922;39;20044;-68
2023/03/28 09:20:49;;;;;;;7.95;3.22;;;;;;;8.58;51.80;102430.31;3609628;39;20075;-67
2023/03/28 09:23:50;;;;;;;8.23;2.15;;;;;;;8.50;49.82;102417.13;3607133;39;20051;-67
2023/03/28 09:26:22;;;;;;;7.97;2.15;;;;;;;8.54;50.89;102424.16;3607708;39;20421;-67
2023/03/28 09:29:02;;;;;;;3.70;1.60;;;;;;;8.50;49.27;102430.53;3607662;39;20074;-67
2023/03/28 09:31:38;;;;;;;6.43;2.20;;;;;;;8.57;49.33;102429.44;3609491;39;20052;-68
2023/03/28 09:34:06;;;;;;;5.60;2.55;;;;;;;8.68;49.97;102414.84;3609819;39;20066;-68
2023/03/28 09:36:42;;;;;;;8.82;2.53;;;;;;;8.78;50.67;102421.69;3611241;39;20051;-67
2023/03/28 09:39:38;;;;;;;9.23;2.25;;;;;;;8.80;50.24;102411.81;3598259;39;20079;-68
2023/03/28 09:42:28;;;;;;;7.20;2.70;;;;;;;8.99;50.45;102421.06;3608685;39;20066;-68
2023/03/28 09:45:34;;;;;;;5.53;1.98;;;;;;;9.18;49.42;102416.03;3606866;39;20046;-67
2023/03/28 09:48:02;;;;;;;6.63;1.70;;;;;;;9.28;47.55;102416.63;3609169;39;20043;-68
2023/03/28 09:50:28;;;;;;;4.10;1.95;;;;;;;9.30;47.27;102412.97;3608237;39;20098;-67
2023/03/28 09:52:57;;;;;;;6.20;2.33;;;;;;;9.37;48.01;102399.38;3608954;39;20465;-68
2023/03/28 09:55:29;;;;;;;6.68;2.63;;;;;;;9.48;47.58;102408.84;3609988;39;20063;-68
2023/03/28 09:58:07;;;;;;;6.25;2.00;;;;;;;9.22;48.25;102347.06;3604848;39;20088;-67
2023/03/28 10:00:38;;;;;;;3.92;1.67;;;;;;;9.71;47.64;102400.03;3608762;39;20073;-67
2023/03/28 10:03:06;;;;;;;6.22;2.10;;;;;;;9.70;45.52;102384.84;3609084;39;20067;-67
2023/03/28 10:05:42;;;;;;;5.97;2.00;;;;;;;9.70;45.59;102382.16;3607968;39;20367;-67
2023/03/28 10:08:22;;;;;;;4.43;1.75;;;;;;;9.68;45.72;102377.78;3606216;39;20301;-67
2023/03/28 10:11:17;;;;;;;47.80;30.67;;;;;;;9.79;44.89;102364.84;3611374;39;20069;-67
2023/03/28 10:13:48;;;;;;;26.38;17.95;;;;;;;9.90;44.33;102362.69;3605199;39;20476;-68
2023/03/28 10:16:35;;;;;;;4.25;2.50;;;;;;;9.91;44.13;102359.06;3609348;39;20138;-68
2023/03/28 10:19:01;;;;;;;5.05;1.65;;;;;;;10.02;43.33;102361.38;3608685;39;20157;-68
2023/03/28 10:21:31;;;;;;;6.80;2.53;;;;;;;9.50;44.58;102266.50;3608275;39;20122;-67
2023/03/28 10:24:07;;;;;;;6.85;2.15;;;;;;;10.13;44.08;102350.28;3600960;39;20043;-68
2023/03/28 10:26:33;;;;;;;6.93;2.25;;;;;;;10.02;43.33;102306.78;3592249;39;20062;-67
2023/03/28 10:29:05;;;;;;;7.32;2.10;;;;;;;10.52;42.24;102355.16;3613441;39;20046;-68
2023/03/28 10:31:32;;;;;;;3.92;1.73;;;;;;;10.55;41.75;102355.03;3611643;39;20297;-68
2023/03/28 10:34:03;;;;;;;6.57;1.90;;;;;;;10.65;40.84;102348.38;3607491;39;20316;-68
2023/03/28 10:36:36;;;;;;;4.65;1.88;;;;;;;10.59;40.90;102337.84;3608055;39;20122;-68
2023/03/28 10:39:29;;;;;;;5.95;1.90;;;;;;;10.55;39.88;102344.28;3599103;39;20052;-68
2023/03/28 10:42:01;;;;;;;5.57;1.63;;;;;;;10.57;40.31;102342.44;3609912;39;20379;-69
2023/03/28 10:44:35;;;;;;;8.15;2.17;;;;;;;10.41;40.77;102294.59;3607375;39;20127;-68
2023/03/28 10:47:21;;;;;;;8.80;2.03;;;;;;;10.60;41.83;102292.09;3609261;39;20054;-68
2023/03/28 10:49:54;;;;;;;4.75;1.80;;;;;;;10.94;41.06;102320.34;3610644;39;20090;-68
2023/03/28 10:52:40;;;;;;;4.10;1.75;;;;;;;11.28;41.73;102330.66;3596587;39;20050;-67
2023/03/28 10:55:30;;;;;;;6.85;1.98;;;;;;;11.38;39.27;102325.75;3610468;39;20058;-68
2023/03/28 10:58:19;;;;;;;4.35;1.80;;;;;;;11.51;38.44;102323.44;3599757;39;20070;-68
2023/03/28 11:01:04;;;;;;;3.50;1.85;;;;;;;11.68;37.57;102322.75;3606530;39;20059;-69
2023/03/28 11:04:09;;;;;;;6.90;2.05;;;;;;;11.90;38.15;102325.44;3593171;39;20051;-69
2023/03/28 11:06:45;;;;;;;6.03;2.15;;;;;;;12.10;37.40;102316.47;3605291;39;20066;-68
2023/03/28 11:09:16;;;;;;;8.00;2.17;;;;;;;12.14;37.08;102289.28;3607534;39;20360;-68
2023/03/28 11:12:00;;;;;;;6.72;2.30;;;;;;;12.26;37.31;102286.03;3607794;39;20120;-67
2023/03/28 11:14:53;;;;;;;5.28;1.98;;;;;;;12.63;36.90;102270.00;3607708;39;20047;-68
2023/03/28 11:17:50;;;;;;;4.43;2.17;;;;;;;12.44;36.20;102278.06;3609694;39;20063;-68
2023/03/28 11:20:48;;;;;;;6.40;2.22;;;;;;;12.34;37.78;102266.84;3604612;39;20139;-68
2023/03/28 11:23:40;;;;;;;4.88;2.28;;;;;;;12.45;36.63;102272.59;3605841;39;20047;-69
2023/03/28 11:26:19;;;;;;;4.25;2.10;;;;;;;12.71;36.73;102252.47;3608699;39;20438;-69
2023/03/28 11:29:02;;;;;;;5.63;2.30;;;;;;;13.01;35.26;102249.25;3606548;39;20070;-69
2023/03/28 11:31:41;;;;;;;6.20;2.25;;;;;;;13.11;35.45;102247.84;3607003;39;20392;-68
2023/03/28 11:34:34;;;;;;;6.30;2.47;;;;;;;13.58;34.65;102243.72;3604955;39;20051;-70
2023/03/28 11:37:18;;;;;;;7.20;2.30;;;;;;;13.86;35.41;102253.94;3609086;39;20051;-68
2023/03/28 11:40:06;;;;;;;20.52;13.00;;;;;;;13.85;34.54;102244.09;3609308;39;20082;-68
2023/03/28 11:42:44;;;;;;;12.35;4.28;;;;;;;14.02;33.66;102240.47;3610435;39;20087;-69
2023/03/28 11:45:41;;;;;;;5.68;2.10;;;;;;;14.59;32.73;102233.75;3597034;39;20098;-69
2023/03/28 11:48:25;;;;;;;4.70;2.30;;;;;;;14.95;32.69;102219.06;3608883;39;20488;-69
2023/03/28 11:51:33;;;;;;;;;;;;;;;15.29;32.41;102207.13;3610151;39;20051;-69
2023/03/28 11:54:40;;;;;;;4.80;1.80;;;;;;;15.72;30.90;102192.81;3608945;39;20196;-69
2023/03/28 11:57:28;;;;;;;5.45;1.83;;;;;;;15.54;30.42;102200.25;3596162;39;20058;-67
2023/03/28 12:00:29;;;;;;;4.70;2.10;;;;;;;15.13;30.22;102195.47;3606754;39;20050;-67